createdAt,value
2022-12-07T00:01:30.462Z,47.50
2022-12-07T00:04:04.970Z,47.73
2022-12-07T00:06:33.144Z,47.82
2022-12-07T00:09:00.428Z,47.75
2022-12-07T00:11:27.600Z,47.99
2022-12-07T00:13:57.518Z,47.99
2022-12-07T00:16:27.374Z,47.83
2022-12-07T00:18:55.249Z,48.34
2022-12-07T00:21:28.247Z,47.76
2022-12-07T00:23:57.242Z,48.48
2022-12-07T00:26:29.911Z,47.56
2022-12-07T00:29:22.726Z,47.95
2022-12-07T00:31:50.036Z,48.37
2022-12-07T00:34:21.546Z,47.86
2022-12-07T00:36:48.970Z,48.05
2022-12-07T00:39:16.521Z,47.59
2022-12-07T00:41:43.808Z,47.77
2022-12-07T00:44:10.917Z,47.87
2022-12-07T00:46:38.004Z,48.57
2022-12-07T00:49:05.272Z,47.92
2022-12-07T00:51:32.272Z,47.67
2022-12-07T00:53:59.264Z,48.22
2022-12-07T00:56:28.697Z,47.82
2022-12-07T00:59:04.810Z,47.95
2022-12-07T01:01:35.280Z,48.13
2022-12-07T01:04:03.817Z,47.99
2022-12-07T01:06:31.617Z,47.70
2022-12-07T01:08:59.076Z,47.95
2022-12-07T01:11:29.270Z,48.28
2022-12-07T01:13:57.996Z,47.70
2022-12-07T01:16:27.153Z,48.14
2022-12-07T01:18:56.714Z,48.67
2022-12-07T01:21:29.894Z,47.51
2022-12-07T01:23:58.946Z,47.76
2022-12-07T01:26:27.435Z,48.57
2022-12-07T01:28:56.162Z,48.43
2022-12-07T01:31:25.572Z,48.38
2022-12-07T01:33:55.656Z,48.42
2022-12-07T01:36:30.327Z,48.58
2022-12-07T01:39:01.161Z,48.23
2022-12-07T01:41:31.744Z,48.48
2022-12-07T01:44:16.989Z,48.94
2022-12-07T01:46:49.082Z,48.50
2022-12-07T01:49:24.908Z,48.42
2022-12-07T01:51:55.886Z,48.71
2022-12-07T01:54:23.286Z,48.30
2022-12-07T01:56:54.795Z,49.15
2022-12-07T01:59:26.490Z,48.01
2022-12-07T02:01:55.735Z,48.79
2022-12-07T02:04:23.927Z,48.36
2022-12-07T02:06:52.722Z,48.99
2022-12-07T02:09:19.753Z,48.79
2022-12-07T02:11:47.000Z,48.70
2022-12-07T02:14:14.075Z,48.32
2022-12-07T02:17:07.707Z,48.21
2022-12-07T02:19:47.123Z,48.63
2022-12-07T02:22:51.130Z,48.58
2022-12-07T02:25:42.430Z,49.08
2022-12-07T02:28:34.068Z,48.19
2022-12-07T02:31:09.559Z,48.82
2022-12-07T02:34:03.953Z,48.39
2022-12-07T02:36:35.838Z,48.96
2022-12-07T02:39:07.320Z,48.33
2022-12-07T02:41:43.999Z,48.33
2022-12-07T02:44:15.824Z,48.31
2022-12-07T02:46:48.436Z,48.31
2022-12-07T02:49:16.367Z,48.06
2022-12-07T02:51:45.224Z,48.95
2022-12-07T02:54:17.642Z,48.48
2022-12-07T02:56:45.702Z,48.85
2022-12-07T02:59:38.237Z,49.10
2022-12-07T03:02:23.249Z,48.93
2022-12-07T03:05:27.636Z,49.15
2022-12-07T03:08:19.927Z,49.51
2022-12-07T03:11:08.150Z,49.22
2022-12-07T03:14:04.757Z,49.86
2022-12-07T03:16:42.873Z,49.80
2022-12-07T03:19:15.128Z,50.27
2022-12-07T03:21:47.648Z,50.68
2022-12-07T03:24:22.096Z,50.57
2022-12-07T03:26:54.774Z,49.90
2022-12-07T03:29:32.540Z,50.81
2022-12-07T03:32:06.554Z,50.65
2022-12-07T03:34:46.229Z,50.95
2022-12-07T03:37:23.895Z,50.92
2022-12-07T03:40:12.443Z,50.80
2022-12-07T03:42:40.553Z,51.42
2022-12-07T03:45:08.696Z,51.33
2022-12-07T03:47:57.322Z,51.03
2022-12-07T03:50:37.402Z,51.78
2022-12-07T03:53:16.617Z,50.77
2022-12-07T03:55:47.123Z,50.70
2022-12-07T03:58:18.707Z,50.99
2022-12-07T04:00:48.108Z,51.76
2022-12-07T04:03:15.136Z,51.79
2022-12-07T04:05:43.576Z,52.55
2022-12-07T04:08:10.665Z,52.06
2022-12-07T04:10:37.937Z,51.91
2022-12-07T04:13:05.063Z,51.77
2022-12-07T04:15:32.099Z,52.64
2022-12-07T04:17:59.213Z,52.85
2022-12-07T04:20:26.366Z,52.68
2022-12-07T04:22:53.378Z,52.69
2022-12-07T04:25:20.370Z,52.68
2022-12-07T04:27:47.329Z,53.18
2022-12-07T04:30:14.382Z,52.85
2022-12-07T04:32:41.368Z,52.64
2022-12-07T04:35:09.204Z,52.74
2022-12-07T04:37:36.288Z,52.83
2022-12-07T04:40:03.896Z,52.95
2022-12-07T04:42:31.279Z,52.50
2022-12-07T04:44:58.228Z,53.97
2022-12-07T04:47:25.194Z,53.25
2022-12-07T04:49:52.151Z,53.73
2022-12-07T04:52:19.138Z,53.08
2022-12-07T04:54:46.188Z,54.22
2022-12-07T04:57:13.205Z,54.05
2022-12-07T04:59:45.338Z,53.85
2022-12-07T05:02:13.019Z,53.86
2022-12-07T05:04:40.063Z,54.20
2022-12-07T05:07:07.083Z,54.87
2022-12-07T05:09:34.160Z,54.33
2022-12-07T05:12:01.406Z,54.88
2022-12-07T05:14:28.414Z,54.57
2022-12-07T05:16:55.474Z,54.79
2022-12-07T05:19:22.530Z,55.93
2022-12-07T05:21:49.695Z,54.80
2022-12-07T05:24:17.742Z,55.14
2022-12-07T05:26:46.341Z,55.51
2022-12-07T05:29:15.574Z,55.92
2022-12-07T05:31:43.230Z,55.42
2022-12-07T05:34:10.457Z,56.66
2022-12-07T05:36:37.733Z,56.24
2022-12-07T05:39:04.997Z,56.07
2022-12-07T05:41:50.507Z,56.50
2022-12-07T05:44:17.560Z,56.95
2022-12-07T05:46:44.647Z,57.17
2022-12-07T05:49:11.739Z,55.99
2022-12-07T05:51:38.795Z,56.78
2022-12-07T05:54:05.941Z,57.17
2022-12-07T05:56:33.170Z,56.65
2022-12-07T05:59:18.739Z,56.10
2022-12-07T06:01:45.818Z,57.44
2022-12-07T06:04:12.866Z,58.50
2022-12-07T06:06:39.993Z,58.02
2022-12-07T06:09:07.384Z,57.25
2022-12-07T06:11:52.805Z,57.11
2022-12-07T06:14:19.979Z,56.77
2022-12-07T06:16:47.090Z,56.79
2022-12-07T06:19:33.032Z,57.98
2022-12-07T06:22:00.340Z,57.91
2022-12-07T06:24:27.455Z,58.30
2022-12-07T06:26:54.470Z,58.34
2022-12-07T06:29:23.174Z,59.36
2022-12-07T06:31:50.268Z,58.79
2022-12-07T06:34:20.978Z,58.09
2022-12-07T06:36:52.316Z,58.47
2022-12-07T06:39:21.023Z,58.55
2022-12-07T06:41:48.345Z,57.80
2022-12-07T06:44:15.462Z,58.02
2022-12-07T06:46:42.496Z,59.08
2022-12-07T06:49:09.554Z,59.58
2022-12-07T06:51:37.607Z,59.69
2022-12-07T06:54:05.414Z,60.15
2022-12-07T06:56:32.405Z,59.43
2022-12-07T06:58:59.468Z,59.39
2022-12-07T07:01:26.655Z,58.71
2022-12-07T07:03:55.133Z,58.43
2022-12-07T07:06:22.124Z,58.34
2022-12-07T07:08:49.223Z,59.51
2022-12-07T07:11:16.259Z,60.15
2022-12-07T07:13:43.268Z,60.17
2022-12-07T07:16:10.332Z,59.73
2022-12-07T07:18:37.419Z,59.66
2022-12-07T07:21:05.130Z,58.62
2022-12-07T07:23:32.144Z,57.93
2022-12-07T07:25:59.193Z,59.45
2022-12-07T07:28:26.171Z,59.17
2022-12-07T07:30:53.326Z,59.42
2022-12-07T07:33:20.479Z,59.27
2022-12-07T07:35:47.464Z,58.55
2022-12-07T07:38:14.459Z,57.83
2022-12-07T07:40:41.523Z,57.93
2022-12-07T07:43:10.171Z,57.65
2022-12-07T07:45:37.437Z,58.03
2022-12-07T07:48:04.697Z,58.11
2022-12-07T07:50:31.732Z,58.48
2022-12-07T07:52:59.318Z,59.18
2022-12-07T07:55:26.354Z,58.90
2022-12-07T07:57:55.097Z,58.76
2022-12-07T08:00:23.077Z,58.30
2022-12-07T08:02:50.160Z,58.91
2022-12-07T08:05:17.688Z,58.20
2022-12-07T08:07:45.085Z,58.98
2022-12-07T08:10:14.124Z,58.31
2022-12-07T08:13:02.200Z,58.07
2022-12-07T08:15:31.568Z,56.49
2022-12-07T08:17:59.230Z,56.26
2022-12-07T08:20:26.579Z,56.35
2022-12-07T08:22:53.624Z,55.30
2022-12-07T08:25:20.806Z,54.76
2022-12-07T08:27:47.795Z,56.18
2022-12-07T08:30:14.969Z,55.56
2022-12-07T08:32:42.208Z,55.08
2022-12-07T08:35:09.646Z,55.93
2022-12-07T08:37:37.043Z,55.04
2022-12-07T08:40:05.451Z,55.69
2022-12-07T08:42:38.862Z,55.25
2022-12-07T08:45:11.764Z,54.67
2022-12-07T08:47:46.751Z,54.72
2022-12-07T08:50:14.671Z,54.78
2022-12-07T08:52:43.244Z,54.30
2022-12-07T08:55:13.522Z,54.88
2022-12-07T08:57:41.475Z,55.27
2022-12-07T09:00:09.210Z,54.18
2022-12-07T09:02:36.390Z,54.13
2022-12-07T09:05:04.263Z,53.80
2022-12-07T09:07:34.021Z,52.78
2022-12-07T09:10:01.601Z,53.21
2022-12-07T09:12:29.862Z,52.61
2022-12-07T09:14:57.370Z,52.23
2022-12-07T09:17:24.588Z,52.36
2022-12-07T09:19:51.691Z,52.06
2022-12-07T09:22:18.790Z,51.74
2022-12-07T09:24:46.669Z,51.98
2022-12-07T09:27:14.172Z,52.26
2022-12-07T09:29:41.252Z,51.77
2022-12-07T09:32:11.658Z,51.40
2022-12-07T09:34:39.193Z,51.46
2022-12-07T09:37:07.480Z,51.42
2022-12-07T09:39:34.640Z,50.62
2022-12-07T09:42:05.749Z,50.54
2022-12-07T09:44:33.828Z,51.34
2022-12-07T09:47:01.167Z,51.00
2022-12-07T09:49:32.280Z,50.24
2022-12-07T09:52:05.751Z,50.91
2022-12-07T09:54:37.843Z,50.48
2022-12-07T09:57:04.873Z,50.70
2022-12-07T09:59:36.444Z,50.47
2022-12-07T10:02:26.369Z,50.42
2022-12-07T10:04:53.902Z,50.05
2022-12-07T10:07:20.951Z,50.45
2022-12-07T10:09:47.977Z,50.66
2022-12-07T10:12:15.028Z,50.69
2022-12-07T10:15:12.384Z,50.26
2022-12-07T10:17:49.818Z,50.55
2022-12-07T10:20:28.422Z,50.18
2022-12-07T10:23:06.966Z,50.07
2022-12-07T10:25:37.773Z,49.98
2022-12-07T10:28:19.775Z,50.58
2022-12-07T10:31:00.533Z,50.69
2022-12-07T10:33:39.410Z,50.45
2022-12-07T10:36:20.240Z,50.31
2022-12-07T10:38:51.428Z,50.71
2022-12-07T10:41:18.678Z,50.64
2022-12-07T10:43:55.539Z,50.62
2022-12-07T10:46:41.490Z,51.04
2022-12-07T10:49:41.564Z,52.44
2022-12-07T10:52:22.329Z,51.91
2022-12-07T10:54:55.439Z,51.40
2022-12-07T10:57:40.872Z,51.02
2022-12-07T11:00:18.529Z,51.75
2022-12-07T11:02:55.784Z,51.91
2022-12-07T11:05:49.017Z,51.53
2022-12-07T11:08:23.845Z,51.21
2022-12-07T11:11:26.243Z,51.53
2022-12-07T11:14:05.464Z,51.29
2022-12-07T11:16:53.800Z,52.02
2022-12-07T11:19:46.714Z,51.72
2022-12-07T11:22:35.250Z,51.69
2022-12-07T11:25:20.299Z,52.71
2022-12-07T11:28:22.449Z,52.35
2022-12-07T11:31:01.649Z,52.29
2022-12-07T11:33:39.288Z,52.14
2022-12-07T11:36:32.825Z,52.03
2022-12-07T11:39:09.695Z,52.06
2022-12-07T11:41:41.764Z,52.21
2022-12-07T11:44:47.079Z,52.50
2022-12-07T11:47:32.561Z,52.41
2022-12-07T11:50:31.542Z,53.16
2022-12-07T11:53:07.678Z,53.31
2022-12-07T11:56:03.118Z,52.69
2022-12-07T11:58:51.295Z,53.13
2022-12-07T12:01:45.589Z,53.31
2022-12-07T12:04:12.623Z,53.16
2022-12-07T12:06:45.455Z,52.93
2022-12-07T12:15:35.747Z,54.11
2022-12-07T12:18:38.758Z,54.47
2022-12-07T12:21:10.639Z,54.83
2022-12-07T12:23:44.203Z,55.05
2022-12-07T12:26:21.473Z,54.92
2022-12-07T12:29:00.615Z,56.02
2022-12-07T12:31:42.533Z,56.33
2022-12-07T12:34:34.886Z,56.10
2022-12-07T12:37:02.207Z,56.45
2022-12-07T12:39:29.559Z,55.89
2022-12-07T12:41:59.274Z,55.69
2022-12-07T12:44:35.039Z,55.91
2022-12-07T12:47:26.145Z,55.79
2022-12-07T12:50:13.342Z,57.07
2022-12-07T12:52:43.393Z,57.63
2022-12-07T12:55:14.594Z,56.80
2022-12-07T12:57:41.670Z,57.04
2022-12-07T13:00:18.880Z,57.20
2022-12-07T13:02:52.233Z,57.71
2022-12-07T13:05:29.057Z,56.80
2022-12-07T13:08:20.295Z,57.11
2022-12-07T13:10:49.273Z,56.81
2022-12-07T13:13:16.299Z,56.78
2022-12-07T13:15:46.394Z,56.79
2022-12-07T13:18:28.648Z,58.50
2022-12-07T13:21:10.753Z,57.95
2022-12-07T13:23:47.028Z,57.60
2022-12-07T13:26:31.971Z,58.52
2022-12-07T13:29:10.897Z,58.39
2022-12-07T13:31:37.842Z,58.69
2022-12-07T13:34:26.109Z,57.55
2022-12-07T13:36:53.212Z,57.78
2022-12-07T13:39:23.842Z,58.17
2022-12-07T13:41:58.517Z,57.50
2022-12-07T13:44:27.840Z,57.17
2022-12-07T13:47:10.494Z,58.05
2022-12-07T13:49:53.457Z,57.33
2022-12-07T13:52:31.828Z,57.15
2022-12-07T13:55:02.075Z,57.48
2022-12-07T13:57:32.664Z,57.19
2022-12-07T14:00:00.093Z,57.64
2022-12-07T14:02:35.046Z,57.95
2022-12-07T14:05:16.131Z,57.92
2022-12-07T14:08:02.129Z,59.50
2022-12-07T14:10:53.742Z,59.10
2022-12-07T14:13:36.041Z,58.54
2022-12-07T14:16:05.320Z,58.64
2022-12-07T14:18:40.103Z,58.56
2022-12-07T14:21:26.174Z,58.91
2022-12-07T14:24:14.086Z,59.64
2022-12-07T14:26:41.783Z,59.98
2022-12-07T14:29:27.174Z,60.02
2022-12-07T14:31:55.663Z,60.51
2022-12-07T14:34:23.895Z,60.51
2022-12-07T14:36:51.019Z,60.34
2022-12-07T14:39:18.225Z,60.57
2022-12-07T14:41:51.547Z,60.00
2022-12-07T14:44:26.844Z,60.42
2022-12-07T14:49:43.700Z,60.42
2022-12-07T14:55:05.831Z,60.24
2022-12-07T14:57:33.180Z,60.58
2022-12-07T15:00:00.141Z,60.89
2022-12-07T15:02:27.135Z,60.13
2022-12-07T15:04:54.207Z,60.61
2022-12-07T15:07:22.684Z,60.87
2022-12-07T15:09:50.085Z,60.24
2022-12-07T15:12:17.129Z,61.41
2022-12-07T15:14:44.192Z,60.59
2022-12-07T15:17:24.768Z,60.98
2022-12-07T15:19:56.847Z,61.80
2022-12-07T15:22:24.052Z,60.65
2022-12-07T15:24:51.045Z,60.44
2022-12-07T15:27:18.036Z,61.29
2022-12-07T15:29:45.117Z,61.32
2022-12-07T15:32:12.179Z,63.32
2022-12-07T15:34:40.519Z,62.88
2022-12-07T15:37:09.122Z,61.92
2022-12-07T15:39:38.108Z,61.81
2022-12-07T15:42:05.245Z,61.11
2022-12-07T15:44:50.743Z,62.02
2022-12-07T15:47:17.791Z,61.99
2022-12-07T15:49:45.091Z,61.27
2022-12-07T15:52:12.143Z,61.15
2022-12-07T15:54:39.164Z,62.43
2022-12-07T15:57:06.392Z,61.81
2022-12-07T15:59:33.394Z,62.35
2022-12-07T16:02:00.500Z,62.61
2022-12-07T16:04:30.273Z,62.86
2022-12-07T16:06:57.706Z,61.86
2022-12-07T16:09:24.890Z,62.76
2022-12-07T16:11:51.923Z,62.75
2022-12-07T16:14:19.103Z,63.01
2022-12-07T16:16:46.297Z,63.15
2022-12-07T16:19:13.356Z,63.74
2022-12-07T16:21:40.804Z,62.94
2022-12-07T16:24:08.517Z,62.90
2022-12-07T16:26:35.558Z,63.36
2022-12-07T16:29:02.705Z,62.96
2022-12-07T16:31:31.124Z,63.42
2022-12-07T16:33:59.387Z,63.31
2022-12-07T16:37:02.020Z,62.59
2022-12-07T16:39:15.966Z,62.70
2022-12-07T16:41:43.071Z,62.98
2022-12-07T16:44:13.557Z,62.82
2022-12-07T16:46:41.556Z,63.35
2022-12-07T16:49:14.805Z,63.55
2022-12-07T16:51:44.098Z,62.18
2022-12-07T16:54:12.972Z,63.18
2022-12-07T16:56:40.642Z,63.08
2022-12-07T16:59:07.643Z,62.31
2022-12-07T17:01:35.591Z,62.75
2022-12-07T17:04:03.841Z,63.03
2022-12-07T17:06:31.985Z,63.04
2022-12-07T17:08:59.293Z,63.81
2022-12-07T17:11:29.300Z,62.92
2022-12-07T17:14:14.727Z,61.82
2022-12-07T17:16:42.086Z,63.19
2022-12-07T17:19:12.152Z,62.94
2022-12-07T17:21:39.491Z,62.02
2022-12-07T17:24:10.796Z,62.66
2022-12-07T17:26:38.374Z,62.01
2022-12-07T17:29:24.250Z,62.80
2022-12-07T17:31:52.070Z,62.50
2022-12-07T17:34:20.016Z,62.87
2022-12-07T17:36:48.097Z,62.29
2022-12-07T17:39:19.782Z,62.27
2022-12-07T17:42:05.815Z,62.17
2022-12-07T17:44:32.965Z,61.74
2022-12-07T17:47:02.489Z,62.26
2022-12-07T17:49:30.233Z,63.41
2022-12-07T17:52:15.997Z,62.80
2022-12-07T17:54:43.108Z,62.71
2022-12-07T17:57:10.204Z,62.71
2022-12-07T17:59:37.644Z,63.07
2022-12-07T18:02:05.272Z,62.87
2022-12-07T18:04:33.361Z,62.57
2022-12-07T18:07:01.705Z,62.83
2022-12-07T18:09:28.824Z,62.23
2022-12-07T18:11:55.823Z,62.13
2022-12-07T18:14:22.871Z,62.81
2022-12-07T18:16:50.184Z,62.25
2022-12-07T18:19:17.839Z,61.83
2022-12-07T18:21:45.147Z,62.36
2022-12-07T18:24:14.617Z,62.94
2022-12-07T18:26:42.732Z,62.65
2022-12-07T18:29:14.008Z,63.25
2022-12-07T18:31:41.071Z,63.13
2022-12-07T18:34:12.391Z,64.16
2022-12-07T18:36:42.868Z,64.03
2022-12-07T18:39:10.174Z,64.69
2022-12-07T18:41:38.985Z,65.04
2022-12-07T18:44:07.286Z,65.30
2022-12-07T18:46:35.896Z,65.21
2022-12-07T18:49:04.406Z,65.42
2022-12-07T18:51:32.582Z,65.69
2022-12-07T18:54:01.453Z,65.88
2022-12-07T18:56:28.705Z,65.13
2022-12-07T18:59:19.744Z,64.99
2022-12-07T19:01:49.677Z,65.81
2022-12-07T19:04:17.634Z,65.54
2022-12-07T19:06:48.158Z,66.48
2022-12-07T19:09:16.039Z,66.42
2022-12-07T19:11:52.735Z,66.22
2022-12-07T19:14:28.205Z,66.72
2022-12-07T19:16:57.573Z,69.49
2022-12-07T19:19:31.211Z,68.21
2022-12-07T19:21:58.385Z,67.42
2022-12-07T19:24:25.453Z,67.38
2022-12-07T19:26:53.053Z,66.59
2022-12-07T19:29:20.288Z,68.20
2022-12-07T19:31:47.968Z,67.63
2022-12-07T19:34:16.639Z,67.33
2022-12-07T19:36:44.509Z,67.46
2022-12-07T19:39:15.229Z,67.13
2022-12-07T19:41:46.344Z,67.42
2022-12-07T19:44:18.525Z,66.68
2022-12-07T19:46:49.796Z,67.77
2022-12-07T19:49:18.024Z,68.67
2022-12-07T19:51:47.907Z,68.93
2022-12-07T19:54:16.808Z,68.31
2022-12-07T19:56:44.928Z,67.96
2022-12-07T19:59:13.611Z,66.36
2022-12-07T20:01:42.329Z,66.45
2022-12-07T20:04:19.874Z,67.43
2022-12-07T20:06:49.283Z,67.99
2022-12-07T20:09:16.395Z,67.09
2022-12-07T20:12:02.333Z,66.78
2022-12-07T20:14:30.469Z,67.19
2022-12-07T20:16:57.884Z,68.35
2022-12-07T20:19:24.918Z,67.69
2022-12-07T20:21:52.205Z,67.97
2022-12-07T20:24:22.044Z,69.02
2022-12-07T20:26:50.874Z,68.49
2022-12-07T20:29:22.445Z,68.98
2022-12-07T20:31:50.042Z,68.62
2022-12-07T20:34:19.671Z,68.35
2022-12-07T20:36:46.745Z,67.32
2022-12-07T20:39:14.004Z,68.56
2022-12-07T20:41:59.685Z,67.90
2022-12-07T20:44:27.056Z,68.17
2022-12-07T20:46:54.368Z,68.23
2022-12-07T20:49:21.722Z,67.48
2022-12-07T20:51:48.773Z,68.76
2022-12-07T20:54:15.857Z,67.63
2022-12-07T20:56:43.220Z,67.50
2022-12-07T20:59:14.875Z,67.78
2022-12-07T21:01:42.498Z,67.67
2022-12-07T21:04:12.106Z,67.93
2022-12-07T21:06:39.454Z,68.34
2022-12-07T21:09:06.557Z,68.58
2022-12-07T21:11:33.666Z,69.05
2022-12-07T21:14:00.768Z,68.12
2022-12-07T21:16:30.335Z,69.37
2022-12-07T21:19:02.358Z,69.04
2022-12-07T21:21:30.655Z,68.51
2022-12-07T21:24:02.437Z,68.84
2022-12-07T21:26:36.533Z,68.95
2022-12-07T21:29:06.097Z,68.87
2022-12-07T21:31:33.684Z,68.19
2022-12-07T21:34:03.396Z,68.73
2022-12-07T21:36:30.401Z,68.14
2022-12-07T21:38:57.904Z,68.08
2022-12-07T21:41:30.124Z,67.59
2022-12-07T21:43:58.104Z,67.78
2022-12-07T21:46:33.252Z,69.08
2022-12-07T21:49:04.872Z,67.93
2022-12-07T21:51:32.130Z,68.36
2022-12-07T21:54:00.208Z,67.94
2022-12-07T21:56:45.440Z,68.06
2022-12-07T21:59:15.045Z,68.25
2022-12-07T22:01:45.604Z,68.76
2022-12-07T22:04:21.752Z,68.51
2022-12-07T22:06:49.712Z,67.39
2022-12-07T22:09:18.896Z,67.81
2022-12-07T22:11:47.060Z,68.51
2022-12-07T22:14:32.672Z,69.07
2022-12-07T22:16:59.949Z,68.22
2022-12-07T22:19:27.024Z,69.20
2022-12-07T22:21:54.087Z,69.13
2022-12-07T22:24:21.112Z,67.79
2022-12-07T22:26:48.148Z,69.04
2022-12-07T22:29:16.205Z,69.55
2022-12-07T22:31:43.319Z,68.94
2022-12-07T22:34:18.221Z,69.88
2022-12-07T22:36:45.319Z,70.12
2022-12-07T22:39:12.775Z,70.02
2022-12-07T22:41:40.903Z,69.51
2022-12-07T22:44:09.637Z,69.46
2022-12-07T22:46:37.775Z,69.70
2022-12-07T22:49:05.227Z,68.73
2022-12-07T22:51:37.799Z,69.23
2022-12-07T22:54:07.496Z,69.92
2022-12-07T22:56:36.731Z,69.61
2022-12-07T22:59:07.244Z,68.86
2022-12-07T23:01:35.190Z,68.26
2022-12-07T23:04:02.335Z,68.39
2022-12-07T23:06:32.061Z,69.88
2022-12-07T23:09:00.972Z,69.81
2022-12-07T23:11:49.563Z,70.55
2022-12-07T23:14:19.701Z,69.75
2022-12-07T23:16:47.127Z,70.50
2022-12-07T23:19:14.554Z,70.26
2022-12-07T23:21:42.936Z,70.53
2022-12-07T23:24:13.367Z,69.57
2022-12-07T23:26:44.393Z,68.63
2022-12-07T23:29:17.027Z,69.20
2022-12-07T23:31:44.965Z,70.78
2022-12-07T23:34:12.011Z,71.14
2022-12-07T23:36:39.452Z,71.30
2022-12-07T23:39:06.427Z,69.87
2022-12-07T23:41:33.415Z,69.08
2022-12-07T23:44:01.319Z,69.05
2022-12-07T23:46:30.945Z,69.45
2022-12-07T23:49:00.480Z,68.59
2022-12-07T23:51:27.587Z,69.02
2022-12-07T23:53:55.189Z,69.90
2022-12-07T23:56:24.760Z,71.30
2022-12-07T23:58:52.840Z,70.59
